Time;durP1;ratioP1;P1;durP2;ratioP2;P2;SDS_P1;SDS_P2;PMS_P1;PMS_P2;Temp;Humidity;BMP_temperature;BMP_pressure;BME280_temperature;BME280_humidity;BME280_pressure;Samples;Min_cycle;Max_cycle;Signal;HPM_P1;HPM_P2
2022/08/25 00:01:52;;;;;;;4.37;3.30;;;21.00;99.90;;;;;;6087225;23;20445;-70
2022/08/25 00:04:21;;;;;;;3.80;3.50;;;21.00;99.90;;;;;;6077829;23;20823;-71
2022/08/25 00:06:49;;;;;;;3.83;3.53;;;21.00;99.90;;;;;;6084693;23;20776;-70
2022/08/25 00:09:18;;;;;;;4.30;4.00;;;20.90;99.90;;;;;;6087898;23;20449;-71
2022/08/25 00:11:48;;;;;;;4.23;3.93;;;20.90;99.90;;;;;;6077715;23;20537;-70
2022/08/25 00:14:21;;;;;;;3.67;3.37;;;20.90;99.90;;;;;;6088037;23;20458;-70
2022/08/25 00:16:48;;;;;;;3.37;3.17;;;20.90;99.90;;;;;;6076926;23;20449;-71
2022/08/25 00:19:19;;;;;;;3.73;3.43;;;20.90;99.90;;;;;;6084678;23;20504;-71
2022/08/25 00:21:46;;;;;;;3.70;3.40;;;20.80;99.90;;;;;;6065742;23;20430;-70
2022/08/25 00:24:16;;;;;;;3.50;3.30;;;20.80;99.90;;;;;;6084765;23;20469;-70
2022/08/25 00:26:45;;;;;;;4.27;3.87;;;20.80;99.90;;;;;;6075821;23;20579;-70
2022/08/25 00:29:13;;;;;;;4.00;3.70;;;20.80;99.90;;;;;;6086971;23;20503;-71
2022/08/25 00:31:42;;;;;;;4.13;3.63;;;20.70;99.90;;;;;;6087366;23;20960;-70
2022/08/25 00:34:11;;;;;;;3.67;3.30;;;20.60;99.90;;;;;;6073277;23;20457;-70
2022/08/25 00:36:38;;;;;;;4.20;3.90;;;20.60;99.90;;;;;;6081100;23;20499;-70
2022/08/25 00:39:07;;;;;;;4.03;3.53;;;20.70;99.90;;;;;;6080952;23;20557;-71
2022/08/25 00:41:35;;;;;;;3.67;3.43;;;20.40;99.90;;;;;;6074829;23;20465;-70
2022/08/25 00:44:05;;;;;;;3.73;3.47;;;20.40;99.90;;;;;;6083400;23;20821;-70
2022/08/25 00:46:38;;;;;;;4.87;4.07;;;20.30;99.90;;;;;;6081601;23;20467;-71
2022/08/25 00:49:12;;;;;;;4.27;3.97;;;20.30;99.90;;;;;;6087144;23;21211;-71
2022/08/25 00:51:42;;;;;;;3.90;3.50;;;20.30;99.90;;;;;;6069604;23;20469;-70
2022/08/25 00:54:21;;;;;;;4.00;3.70;;;20.30;99.90;;;;;;6087805;23;20491;-70
2022/08/25 00:56:50;;;;;;;4.00;3.70;;;20.20;99.90;;;;;;6076540;23;20513;-71
2022/08/25 00:59:18;;;;;;;4.50;4.10;;;20.20;99.90;;;;;;6088151;23;20459;-70
2022/08/25 01:01:45;;;;;;;3.90;3.60;;;20.20;99.90;;;;;;6080826;23;21002;-71
2022/08/25 01:04:14;;;;;;;4.17;3.87;;;20.20;99.90;;;;;;6082677;23;20454;-70
2022/08/25 01:06:43;;;;;;;4.07;3.67;;;20.20;99.90;;;;;;6082617;23;20485;-71
2022/08/25 01:09:12;;;;;;;4.00;3.70;;;20.10;99.90;;;;;;6067068;23;20454;-70
2022/08/25 01:11:40;;;;;;;4.07;3.70;;;20.20;99.90;;;;;;6089615;23;20461;-70
2022/08/25 01:14:09;;;;;;;4.20;3.90;;;20.10;99.90;;;;;;6079511;23;20521;-70
2022/08/25 01:16:38;;;;;;;3.80;3.50;;;20.10;99.90;;;;;;6078837;23;20503;-70
2022/08/25 01:19:07;;;;;;;5.23;4.10;;;20.20;99.90;;;;;;6082828;23;21447;-70
2022/08/25 01:21:40;;;;;;;3.77;3.47;;;20.10;99.90;;;;;;6075720;23;20527;-70
2022/08/25 01:24:12;;;;;;;3.97;3.67;;;20.10;99.90;;;;;;6085512;23;20786;-70
2022/08/25 01:26:39;;;;;;;3.70;3.40;;;20.10;99.90;;;;;;6077406;23;20519;-70
2022/08/25 01:29:25;;;;;;;3.63;3.33;;;20.10;99.90;;;;;;6082698;23;20473;-71
2022/08/25 01:31:56;;;;;;;4.27;3.97;;;20.10;99.90;;;;;;6068380;23;20516;-70
2022/08/25 01:34:25;;;;;;;4.37;3.97;;;20.20;99.90;;;;;;6067988;23;20468;-70
2022/08/25 01:36:54;;;;;;;4.00;3.70;;;20.20;99.90;;;;;;6071948;23;20462;-70
2022/08/25 01:39:22;;;;;;;4.30;4.00;;;20.20;99.90;;;;;;6070667;23;20476;-71
2022/08/25 01:41:59;;;;;;;4.13;3.83;;;20.20;99.90;;;;;;6072172;23;20434;-70
2022/08/25 01:44:26;;;;;;;4.40;4.00;;;20.20;99.90;;;;;;6078178;23;20470;-70
2022/08/25 01:46:53;;;;;;;4.57;4.17;;;20.20;99.90;;;;;;6075988;23;20445;-70
2022/08/25 01:49:21;;;;;;;4.30;4.00;;;20.20;99.90;;;;;;6083522;23;20443;-71
2022/08/25 01:51:51;;;;;;;5.20;4.70;;;20.10;99.90;;;;;;6089570;23;20470;-71
2022/08/25 01:54:20;;;;;;;4.70;4.33;;;20.10;99.90;;;;;;6085457;23;20487;-71
2022/08/25 01:56:47;;;;;;;4.53;4.20;;;20.20;99.90;;;;;;6081069;23;20450;-71
2022/08/25 01:59:16;;;;;;;5.23;4.73;;;20.10;99.90;;;;;;6081853;23;20552;-71
2022/08/25 02:01:43;;;;;;;4.47;4.17;;;20.10;99.90;;;;;;6085847;23;20439;-70
2022/08/25 02:04:11;;;;;;;4.43;4.13;;;20.10;99.90;;;;;;6077110;23;20583;-70
2022/08/25 02:06:39;;;;;;;9.73;5.20;;;20.10;99.90;;;;;;6080024;23;20531;-70
2022/08/25 02:09:09;;;;;;;5.17;4.67;;;20.10;99.90;;;;;;6085247;23;20467;-70
2022/08/25 02:11:40;;;;;;;4.97;4.57;;;20.10;99.90;;;;;;6082299;23;20433;-71
2022/08/25 02:14:10;;;;;;;4.73;4.33;;;20.10;99.90;;;;;;6079091;23;20505;-70
2022/08/25 02:16:39;;;;;;;4.70;4.40;;;20.10;99.90;;;;;;6073391;23;20516;-71
2022/08/25 02:19:09;;;;;;;4.50;4.20;;;20.10;99.90;;;;;;6074113;23;20581;-71
2022/08/25 02:21:36;;;;;;;4.70;4.30;;;20.10;99.90;;;;;;6085134;23;20448;-70
2022/08/25 02:24:04;;;;;;;4.60;4.20;;;20.10;99.90;;;;;;6082277;23;20497;-70
2022/08/25 02:26:31;;;;;;;4.70;4.30;;;20.10;99.90;;;;;;6086914;23;20446;-71
2022/08/25 02:29:00;;;;;;;4.57;4.27;;;20.00;99.90;;;;;;6070926;23;20579;-70
2022/08/25 02:31:27;;;;;;;4.57;4.27;;;20.00;99.90;;;;;;6082343;23;20465;-71
2022/08/25 02:33:54;;;;;;;4.37;4.07;;;20.00;99.90;;;;;;6086923;23;20553;-70
2022/08/25 02:36:23;;;;;;;4.90;4.60;;;20.00;99.90;;;;;;6082683;23;20443;-71
2022/08/25 02:38:50;;;;;;;5.13;4.80;;;20.00;99.90;;;;;;6085246;23;20438;-70
2022/08/25 02:41:21;;;;;;;5.10;4.70;;;20.00;99.90;;;;;;6080399;23;20471;-71
2022/08/25 02:43:48;;;;;;;4.37;4.07;;;20.00;99.90;;;;;;6073300;23;20545;-71
2022/08/25 02:46:19;;;;;;;5.17;4.77;;;20.00;99.90;;;;;;6087281;23;20482;-70
2022/08/25 02:48:48;;;;;;;5.03;4.63;;;20.00;99.90;;;;;;6088398;23;20506;-70
2022/08/25 02:51:15;;;;;;;5.20;4.80;;;20.00;99.90;;;;;;6068996;23;20449;-70
2022/08/25 02:53:44;;;;;;;5.47;5.07;;;20.00;99.90;;;;;;6081118;23;20973;-70
2022/08/25 02:56:13;;;;;;;5.37;4.97;;;20.00;99.90;;;;;;6080661;23;20589;-71
2022/08/25 02:58:43;;;;;;;5.63;5.13;;;19.90;99.90;;;;;;6079919;23;20443;-70
2022/08/25 03:01:11;;;;;;;5.67;5.27;;;19.90;99.90;;;;;;6086076;23;20589;-71
2022/08/25 03:03:41;;;;;;;5.60;5.20;;;19.90;99.90;;;;;;6080941;23;20463;-71
2022/08/25 03:06:11;;;;;;;5.70;5.20;;;19.90;99.90;;;;;;6075375;23;20926;-70
2022/08/25 03:08:38;;;;;;;5.30;4.90;;;19.90;99.90;;;;;;6077540;23;20444;-70
2022/08/25 03:11:06;;;;;;;5.27;4.40;;;19.90;99.90;;;;;;6066975;23;20497;-70
2022/08/25 03:13:34;;;;;;;5.17;4.77;;;19.80;99.90;;;;;;6082485;23;20465;-70
2022/08/25 03:16:02;;;;;;;5.00;4.60;;;19.80;99.90;;;;;;6086533;23;20446;-70
2022/08/25 03:18:29;;;;;;;4.97;4.57;;;19.80;99.90;;;;;;6078703;23;20795;-71
2022/08/25 03:20:58;;;;;;;4.63;4.33;;;19.80;99.90;;;;;;6072717;23;20554;-70
2022/08/25 03:23:25;;;;;;;4.80;4.40;;;19.80;99.90;;;;;;6079057;23;20501;-71
2022/08/25 03:28:38;;;;;;;5.30;4.83;;;19.70;99.90;;;;;;6074964;23;20446;-70
2022/08/25 03:31:05;;;;;;;5.53;5.13;;;19.70;99.90;;;;;;6086918;23;20438;-70
2022/08/25 03:33:32;;;;;;;5.10;4.70;;;19.70;99.90;;;;;;6073649;23;20451;-71
2022/08/25 03:36:01;;;;;;;5.73;5.33;;;19.70;99.90;;;;;;6079458;23;20451;-70
2022/08/25 03:38:28;;;;;;;5.83;5.33;;;19.70;99.90;;;;;;6079225;23;20489;-70
2022/08/25 03:40:55;;;;;;;5.13;4.73;;;19.70;99.90;;;;;;6077526;23;20477;-70
2022/08/25 03:43:22;;;;;;;5.60;5.20;;;19.70;99.90;;;;;;6084537;23;20501;-70
2022/08/25 03:45:49;;;;;;;5.73;5.23;;;19.70;99.90;;;;;;6072081;23;20474;-70
2022/08/25 03:48:17;;;;;;;5.37;4.90;;;19.70;99.90;;;;;;6079421;23;20514;-70
2022/08/25 03:50:46;;;;;;;5.90;5.40;;;19.70;99.90;;;;;;6078766;23;20496;-70
2022/08/25 03:53:14;;;;;;;5.37;4.97;;;19.70;99.90;;;;;;6081219;23;21018;-70
2022/08/25 03:55:41;;;;;;;6.23;5.63;;;19.70;99.90;;;;;;6082980;23;20508;-71
2022/08/25 03:58:09;;;;;;;5.30;4.90;;;19.70;99.90;;;;;;6077869;23;20447;-71
2022/08/25 04:00:36;;;;;;;5.40;5.00;;;19.70;99.90;;;;;;6077867;23;20477;-70
2022/08/25 04:03:03;;;;;;;5.30;4.90;;;19.70;99.90;;;;;;6080596;23;20824;-71
2022/08/25 04:05:30;;;;;;;5.77;5.27;;;19.70;99.90;;;;;;6065388;23;20439;-70
2022/08/25 04:07:57;;;;;;;5.90;5.40;;;19.80;99.90;;;;;;6078470;23;20519;-70
2022/08/25 04:10:25;;;;;;;5.73;5.33;;;19.70;99.90;;;;;;6080507;23;20487;-70
2022/08/25 04:12:53;;;;;;;5.30;5.00;;;19.70;99.90;;;;;;6065049;23;20526;-70
2022/08/25 04:15:20;;;;;;;5.60;5.20;;;19.70;99.90;;;;;;6076649;23;20518;-70
2022/08/25 04:17:47;;;;;;;6.07;5.57;;;19.70;99.90;;;;;;6077032;23;20513;-70
2022/08/25 04:20:14;;;;;;;6.10;5.60;;;19.70;99.90;;;;;;6068995;23;20463;-70
2022/08/25 04:22:41;;;;;;;6.03;5.40;;;19.70;99.90;;;;;;6073366;23;20537;-70
2022/08/25 04:25:09;;;;;;;5.50;5.00;;;19.70;99.90;;;;;;6078984;23;20500;-70
2022/08/25 04:27:38;;;;;;;5.93;5.50;;;19.70;99.90;;;;;;6070772;23;20440;-70
2022/08/25 04:30:06;;;;;;;6.47;5.97;;;19.70;99.90;;;;;;6090377;23;20446;-70
2022/08/25 04:32:35;;;;;;;6.20;5.70;;;19.70;99.90;;;;;;6076053;23;20618;-70
2022/08/25 04:35:02;;;;;;;5.63;5.23;;;19.80;99.90;;;;;;6073732;23;20482;-70
2022/08/25 04:37:29;;;;;;;6.10;5.70;;;19.80;99.90;;;;;;6078422;23;20452;-71
2022/08/25 04:39:56;;;;;;;6.80;6.20;;;19.80;99.90;;;;;;6076723;23;20434;-71
2022/08/25 04:42:25;;;;;;;6.30;5.80;;;19.80;99.90;;;;;;6089801;23;20964;-71
2022/08/25 04:44:53;;;;;;;6.33;5.90;;;19.80;99.90;;;;;;6085248;23;20435;-70
2022/08/25 04:47:20;;;;;;;6.73;6.23;;;19.80;99.90;;;;;;6076879;23;20435;-71
2022/08/25 04:49:47;;;;;;;7.70;6.90;;;19.80;99.90;;;;;;6085395;23;20797;-70
2022/08/25 04:52:15;;;;;;;7.60;7.00;;;19.80;99.90;;;;;;6076575;23;20863;-70
2022/08/25 04:54:42;;;;;;;7.07;6.47;;;19.80;99.90;;;;;;6074876;23;20466;-70
2022/08/25 04:57:09;;;;;;;6.50;6.00;;;19.70;99.90;;;;;;6080158;23;20822;-71
2022/08/25 04:59:36;;;;;;;6.80;6.13;;;19.70;99.90;;;;;;6067779;23;20466;-70
2022/08/25 05:02:05;;;;;;;7.10;6.60;;;19.70;99.90;;;;;;6078566;23;20486;-70
2022/08/25 05:04:35;;;;;;;7.27;6.73;;;19.60;99.90;;;;;;6076361;23;20442;-70
2022/08/25 05:07:03;;;;;;;7.53;6.93;;;19.60;99.90;;;;;;6084097;23;20434;-70
2022/08/25 05:09:30;;;;;;;6.70;6.20;;;19.80;99.90;;;;;;6087847;23;20466;-70
2022/08/25 05:11:57;;;;;;;7.20;6.60;;;19.60;99.90;;;;;;6082684;23;20547;-70
2022/08/25 05:14:24;;;;;;;7.53;6.93;;;19.70;99.90;;;;;;6081183;23;20528;-70
2022/08/25 05:16:51;;;;;;;6.57;6.10;;;19.70;99.90;;;;;;6085568;23;20453;-70
2022/08/25 05:19:19;;;;;;;7.60;6.90;;;19.70;99.90;;;;;;6071239;23;20444;-70
2022/08/25 05:21:47;;;;;;;7.03;6.43;;;19.50;99.90;;;;;;6083647;23;20953;-70
2022/08/25 05:24:14;;;;;;;7.40;6.70;;;19.50;99.90;;;;;;6088996;23;20441;-71
2022/08/25 05:26:41;;;;;;;7.93;7.23;;;19.30;99.90;;;;;;6094693;23;20529;-70
2022/08/25 05:29:09;;;;;;;8.10;7.40;;;19.20;99.90;;;;;;6084844;23;20559;-70
2022/08/25 05:31:36;;;;;;;7.73;7.03;;;19.10;99.90;;;;;;6085317;23;20804;-70
2022/08/25 05:34:06;;;;;;;7.93;7.20;;;19.00;99.90;;;;;;6081941;23;20442;-71
2022/08/25 05:36:35;;;;;;;8.63;7.87;;;19.00;99.90;;;;;;6074924;23;20472;-70
2022/08/25 05:39:02;;;;;;;7.50;6.80;;;19.00;99.90;;;;;;6085286;23;20771;-69
2022/08/25 05:41:30;;;;;;;8.00;7.30;;;19.10;99.90;;;;;;6067335;23;20893;-70
2022/08/25 05:43:58;;;;;;;7.47;6.70;;;19.20;99.90;;;;;;6070701;23;20473;-70
2022/08/25 05:46:25;;;;;;;8.10;7.30;;;19.10;99.90;;;;;;6077149;23;20947;-70
2022/08/25 05:48:53;;;;;;;8.20;7.50;;;19.00;99.90;;;;;;6083369;23;20877;-72
2022/08/25 05:51:21;;;;;;;8.83;7.53;;;19.00;99.90;;;;;;6072734;23;20427;-70
2022/08/25 05:53:51;;;;;;;8.30;7.60;;;19.10;99.90;;;;;;6063606;23;20472;-73
2022/08/25 05:56:19;;;;;;;9.13;7.57;;;19.00;99.90;;;;;;6078142;23;20529;-74
2022/08/25 05:58:47;;;;;;;9.40;8.17;;;19.00;99.90;;;;;;6079630;23;20455;-74
2022/08/25 06:04:10;;;;;;;9.60;8.73;;;19.10;99.90;;;;;;6089020;23;20987;-74
2022/08/25 06:06:38;;;;;;;8.57;7.77;;;19.20;99.90;;;;;;6091866;23;20509;-74
2022/08/25 06:09:07;;;;;;;8.03;7.43;;;19.20;99.90;;;;;;6084660;23;20449;-72
2022/08/25 06:11:36;;;;;;;8.30;7.50;;;19.40;99.90;;;;;;6073702;23;20478;-72
2022/08/25 06:14:04;;;;;;;8.60;7.80;;;19.40;99.90;;;;;;6075430;23;20439;-72
2022/08/25 06:16:31;;;;;;;8.40;7.70;;;19.50;99.90;;;;;;6081933;23;20442;-72
2022/08/25 06:18:59;;;;;;;8.83;7.93;;;19.50;99.90;;;;;;6076931;23;20446;-74
2022/08/25 06:21:27;;;;;;;8.63;7.73;;;19.60;99.90;;;;;;6083325;23;21018;-72
2022/08/25 06:23:54;;;;;;;8.70;8.00;;;19.70;99.90;;;;;;6074951;23;20435;-72
2022/08/25 06:26:23;;;;;;;8.83;8.13;;;19.80;99.90;;;;;;6084367;23;20925;-72
2022/08/25 06:28:50;;;;;;;9.83;9.00;;;19.90;99.90;;;;;;6076639;23;20521;-71
2022/08/25 06:31:21;;;;;;;9.60;8.70;;;20.00;99.90;;;;;;6079738;23;20950;-71
2022/08/25 06:33:48;;;;;;;8.23;7.47;;;20.10;99.90;;;;;;6071286;23;20447;-71
2022/08/25 06:36:15;;;;;;;8.00;7.23;;;20.20;99.90;;;;;;6079670;23;20460;-72
2022/08/25 06:38:42;;;;;;;10.10;7.40;;;20.40;99.90;;;;;;6075276;23;20436;-71
2022/08/25 06:41:11;;;;;;;7.70;7.13;;;20.60;99.90;;;;;;6077479;23;20525;-71
2022/08/25 06:43:41;;;;;;;7.77;7.17;;;20.80;99.90;;;;;;6084581;23;20855;-72
2022/08/25 06:46:11;;;;;;;8.20;7.40;;;21.10;99.90;;;;;;6085292;23;20442;-71
2022/08/25 06:48:38;;;;;;;6.60;6.10;;;21.40;99.90;;;;;;6073481;23;20838;-71
2022/08/25 06:51:07;;;;;;;6.97;6.47;;;21.70;99.90;;;;;;6065480;23;20458;-71
2022/08/25 06:53:35;;;;;;;7.40;6.80;;;21.90;99.90;;;;;;6080028;23;20478;-71
2022/08/25 06:56:03;;;;;;;7.33;6.73;;;22.00;99.90;;;;;;6067553;23;20477;-71
2022/08/25 06:58:30;;;;;;;7.50;6.90;;;22.30;99.90;;;;;;6077215;23;20446;-71
2022/08/25 07:01:07;;;;;;;7.30;6.60;;;22.60;99.90;;;;;;6087645;23;20470;-71
2022/08/25 07:03:34;;;;;;;6.10;5.60;;;23.00;99.90;;;;;;6086011;23;20438;-72
2022/08/25 07:06:01;;;;;;;6.13;5.73;;;23.60;99.90;;;;;;6085412;23;20447;-72
2022/08/25 07:08:29;;;;;;;6.20;5.70;;;24.10;99.90;;;;;;6077520;23;21015;-71
2022/08/25 07:10:56;;;;;;;6.47;5.97;;;24.70;99.90;;;;;;6084190;23;20462;-72
2022/08/25 07:13:23;;;;;;;6.33;5.77;;;25.00;99.90;;;;;;6068411;23;20488;-71
2022/08/25 14:06:20;;;;;;;3.00;2.80;;;34.70;58.90;;;;;;6122739;22;20492;-65
2022/08/25 14:08:50;;;;;;;3.40;3.10;;;34.00;59.50;;;;;;6099523;23;20432;-66
2022/08/25 14:11:29;;;;;;;3.60;3.40;;;34.20;59.20;;;;;;6076834;23;20214;-71
2022/08/25 14:14:01;;;;;;;2.97;2.67;;;34.70;59.00;;;;;;6106363;23;20421;-69
2022/08/25 14:16:32;;;;;;;2.90;2.70;;;35.20;58.80;;;;;;6105139;23;20429;-69
